createdAt,value
2018-06-14T09:30:53.284Z,3.00
2018-06-14T09:31:53.264Z,5.40
2018-06-14T09:32:53.263Z,8.30
2018-06-14T09:33:53.223Z,5.30
2018-06-14T09:34:53.207Z,4.70
2018-06-14T09:35:53.278Z,5.10
2018-06-14T09:36:53.179Z,6.20
2018-06-14T09:37:53.163Z,6.00
2018-06-14T09:38:53.173Z,6.80
2018-06-14T09:39:53.137Z,5.70
2018-06-14T09:40:53.120Z,9.40
2018-06-14T09:41:53.106Z,6.80
2018-06-14T09:42:53.157Z,4.90
2018-06-14T09:43:53.083Z,6.50
2018-06-14T09:44:53.083Z,4.60
2018-06-14T09:45:53.057Z,6.20
2018-06-14T09:46:53.041Z,4.60
2018-06-14T09:47:53.032Z,4.80
2018-06-14T09:48:53.086Z,10.30
2018-06-14T09:49:52.999Z,6.10
2018-06-14T09:50:53.017Z,5.50
2018-06-14T09:51:52.980Z,7.00
2018-06-14T09:52:52.967Z,3.70
2018-06-14T09:53:52.951Z,8.60
2018-06-14T09:54:52.940Z,7.60
2018-06-14T09:55:52.926Z,6.90
2018-06-14T09:56:52.941Z,5.80
2018-06-14T09:57:52.901Z,5.30
2018-06-14T09:58:52.892Z,4.60
2018-06-14T09:59:52.876Z,4.60
2018-06-14T10:00:52.867Z,3.90
2018-06-14T10:01:52.859Z,8.30
2018-06-14T10:02:52.863Z,4.10
2018-06-14T10:03:52.834Z,5.60
2018-06-14T10:04:52.819Z,4.30
2018-06-14T10:05:52.803Z,4.60
2018-06-14T10:06:52.792Z,4.90
2018-06-14T10:07:52.781Z,5.70
2018-06-14T10:08:52.793Z,4.10
2018-06-14T10:09:52.757Z,5.70
2018-06-14T10:10:52.744Z,4.80
2018-06-14T10:11:52.746Z,8.20
2018-06-14T10:12:52.722Z,5.60
2018-06-14T10:13:52.709Z,5.00
2018-06-14T10:14:52.713Z,5.70
2018-06-14T10:15:52.700Z,5.90
2018-06-14T10:16:52.677Z,4.70
2018-06-14T10:17:52.666Z,4.50
2018-06-14T10:18:52.654Z,4.70
2018-06-14T10:19:52.641Z,5.20
2018-06-14T10:20:52.663Z,5.40
2018-06-14T10:21:52.621Z,5.00
2018-06-14T10:22:52.602Z,3.50
2018-06-14T10:23:52.590Z,6.50
2018-06-14T10:24:52.609Z,4.50
2018-06-14T10:25:52.571Z,5.00
2018-06-14T10:26:52.581Z,5.10
2018-06-14T10:27:52.553Z,4.10
2018-06-14T10:28:52.538Z,5.30
2018-06-14T10:29:52.527Z,3.80
2018-06-14T10:30:52.512Z,4.40
2018-06-14T10:31:52.497Z,7.00
2018-06-14T10:32:52.523Z,4.50
2018-06-14T10:33:52.480Z,4.70
2018-06-14T10:34:52.466Z,5.00
2018-06-14T10:35:52.454Z,5.10
2018-06-14T10:36:52.438Z,4.70
2018-06-14T10:37:52.437Z,3.50
2018-06-14T10:38:52.473Z,5.30
2018-06-14T10:39:52.412Z,3.50
2018-06-14T10:40:52.398Z,5.10
2018-06-14T10:41:52.386Z,5.70
2018-06-14T10:42:52.374Z,4.00
2018-06-14T10:43:52.367Z,3.70
2018-06-14T10:44:52.392Z,3.90
2018-06-14T10:45:52.337Z,4.30
2018-06-14T10:46:52.327Z,4.60
2018-06-14T10:47:52.317Z,5.40
2018-06-14T10:48:52.301Z,4.10
2018-06-14T10:49:52.292Z,5.20
2018-06-14T10:50:52.298Z,5.20
2018-06-14T10:51:52.267Z,4.40
2018-06-14T10:52:52.271Z,4.40
2018-06-14T10:53:52.247Z,5.70
2018-06-14T10:54:52.236Z,4.60
2018-06-14T10:55:52.221Z,4.50
2018-06-14T10:56:52.233Z,6.50
2018-06-14T10:57:52.198Z,3.60
2018-06-14T10:58:52.186Z,4.10
2018-06-14T10:59:52.187Z,5.70
2018-06-14T11:00:52.165Z,5.10
2018-06-14T11:01:52.161Z,4.60
2018-06-14T11:02:52.168Z,4.30
2018-06-14T11:03:52.135Z,5.10
2018-06-14T11:04:52.119Z,5.90
2018-06-14T11:05:52.128Z,3.30
2018-06-14T11:06:52.099Z,5.40
2018-06-14T11:07:52.086Z,4.40
2018-06-14T11:08:52.095Z,5.00
2018-06-14T11:09:52.061Z,3.70
2018-06-14T11:10:52.056Z,4.80
2018-06-14T11:11:52.044Z,4.60
2018-06-14T11:12:52.042Z,8.80
2018-06-14T11:13:52.018Z,6.00
2018-06-14T11:14:52.024Z,4.10
2018-06-14T11:15:51.994Z,6.30
2018-06-14T11:16:51.988Z,3.80
2018-06-14T11:17:51.973Z,4.80
2018-06-14T11:18:51.966Z,4.70
2018-06-14T11:19:51.948Z,3.00
2018-06-14T11:20:51.966Z,3.90
2018-06-14T11:21:51.939Z,3.70
2018-06-14T11:22:51.917Z,4.30
2018-06-14T11:23:51.912Z,3.70
2018-06-14T11:24:51.894Z,3.90
2018-06-14T11:25:51.879Z,4.30
2018-06-14T11:26:51.879Z,3.40
2018-06-14T11:27:51.857Z,3.20
2018-06-14T11:28:51.849Z,4.70
2018-06-14T11:29:51.850Z,5.20
2018-06-14T11:30:51.817Z,3.50
2018-06-14T11:31:51.822Z,3.50
2018-06-14T11:32:51.798Z,3.40
2018-06-14T11:33:51.785Z,4.50
2018-06-14T11:34:51.773Z,2.80
2018-06-14T11:35:51.762Z,5.00
2018-06-14T11:36:51.776Z,3.60
2018-06-14T11:37:51.737Z,5.00
2018-06-14T11:38:51.724Z,3.50
2018-06-14T11:39:51.718Z,4.20
2018-06-14T11:40:51.702Z,3.30
2018-06-14T11:41:51.692Z,4.50
2018-06-14T11:42:51.687Z,3.90
2018-06-14T11:43:51.668Z,4.60
2018-06-14T11:44:51.687Z,3.00
2018-06-14T11:45:51.645Z,2.90
2018-06-14T11:46:51.634Z,3.50
2018-06-14T11:47:51.634Z,2.90
2018-06-14T11:48:51.613Z,4.10
2018-06-14T11:49:51.602Z,2.60
2018-06-14T11:50:51.591Z,6.10
2018-06-14T11:51:51.576Z,3.50
2018-06-14T11:52:51.589Z,4.20
2018-06-14T11:53:51.564Z,4.60
2018-06-14T11:54:51.540Z,3.90
2018-06-14T11:55:51.531Z,5.10
2018-06-14T11:56:51.528Z,3.70
2018-06-14T11:57:51.508Z,3.50
2018-06-14T11:58:51.510Z,3.40
2018-06-14T11:59:51.490Z,3.30
2018-06-14T12:00:51.481Z,5.20
2018-06-14T12:01:51.584Z,5.60
2018-06-14T12:02:51.452Z,4.90
2018-06-14T12:03:51.451Z,3.90
2018-06-14T12:04:51.433Z,4.20
2018-06-14T12:05:51.452Z,4.30
2018-06-14T12:06:51.408Z,3.60
2018-06-14T12:07:51.397Z,2.70
2018-06-14T12:08:51.413Z,4.70
2018-06-14T12:09:51.381Z,5.40
2018-06-14T12:10:51.361Z,2.70
2018-06-14T12:11:51.357Z,3.90
2018-06-14T12:12:51.341Z,3.80
2018-06-14T12:13:51.329Z,2.60
2018-06-14T12:14:51.332Z,3.00
2018-06-14T12:15:51.307Z,4.00
2018-06-14T12:16:51.297Z,5.10
2018-06-14T12:17:51.286Z,4.20
2018-06-14T12:18:51.278Z,2.50
2018-06-14T12:19:51.289Z,4.40
2018-06-14T12:20:51.256Z,3.60
2018-06-14T12:21:51.245Z,3.90
2018-06-14T12:22:51.233Z,2.60
2018-06-14T12:23:51.218Z,4.60
2018-06-14T12:24:51.235Z,2.50
2018-06-14T12:25:51.201Z,3.50
2018-06-14T12:26:51.188Z,5.40
2018-06-14T12:27:51.177Z,5.10
2018-06-14T12:28:51.167Z,4.30
2018-06-14T12:29:51.159Z,3.60
2018-06-14T12:30:51.155Z,6.10
2018-06-14T12:31:51.141Z,3.80
2018-06-14T12:32:51.125Z,2.70
2018-06-14T12:33:51.115Z,4.80
2018-06-14T12:34:51.113Z,2.40
2018-06-14T12:35:51.107Z,3.30
2018-06-14T12:36:51.082Z,3.30
2018-06-14T12:37:51.077Z,2.70
2018-06-14T12:38:51.065Z,3.30
2018-06-14T12:39:51.059Z,2.90
2018-06-14T12:40:51.068Z,4.60
2018-06-14T12:41:51.036Z,4.90
2018-06-14T12:42:51.022Z,3.00
2018-06-14T12:43:51.017Z,3.80
2018-06-14T12:44:51.002Z,1.50
2018-06-14T12:45:50.997Z,2.30
2018-06-14T12:46:51.004Z,2.80
2018-06-14T12:47:50.973Z,3.10
2018-06-14T12:48:50.959Z,2.90
2018-06-14T12:49:50.951Z,3.10
2018-06-14T12:50:50.938Z,5.20
2018-06-14T12:51:50.937Z,3.00
2018-06-14T12:52:50.921Z,5.10
2018-06-14T12:53:50.908Z,4.40
2018-06-14T12:54:50.902Z,2.60
2018-06-14T12:55:50.893Z,2.90
2018-06-14T12:56:50.913Z,4.40
2018-06-14T12:57:50.874Z,3.80
2018-06-14T12:58:50.860Z,3.30
2018-06-14T12:59:50.852Z,4.60
2018-06-14T13:00:50.842Z,3.00
2018-06-14T13:01:50.834Z,3.00
2018-06-14T13:02:50.853Z,3.00
2018-06-14T13:03:50.815Z,2.60
2018-06-14T13:04:50.807Z,3.00
2018-06-14T13:05:50.804Z,4.30
2018-06-14T13:06:50.788Z,3.70
2018-06-14T13:07:50.795Z,3.70
2018-06-14T13:08:50.774Z,3.40
2018-06-14T13:09:50.762Z,4.00
2018-06-14T13:10:50.751Z,3.40
2018-06-14T13:11:50.745Z,3.20
2018-06-14T13:12:50.751Z,2.30
2018-06-14T13:13:50.731Z,5.60
2018-06-14T13:14:50.713Z,2.20
2018-06-14T13:15:50.735Z,2.40
2018-06-14T13:16:50.704Z,3.30
2018-06-14T13:17:50.714Z,4.70
2018-06-14T13:18:50.681Z,3.50
2018-06-14T13:19:50.667Z,3.90
2018-06-14T13:20:50.659Z,3.50
2018-06-14T13:21:50.655Z,3.70
2018-06-14T13:22:50.639Z,3.00
2018-06-14T13:23:50.641Z,3.40
2018-06-14T13:24:50.621Z,4.80
2018-06-14T13:25:50.634Z,3.40
2018-06-14T13:26:50.610Z,2.60
2018-06-14T13:27:50.596Z,4.40
2018-06-14T13:28:50.593Z,4.00
2018-06-14T13:29:50.578Z,3.70
2018-06-14T13:30:50.563Z,3.80
2018-06-14T13:31:50.564Z,4.30
2018-06-14T13:32:50.546Z,4.80
2018-06-14T13:33:50.550Z,3.00
2018-06-14T13:34:50.523Z,4.30
2018-06-14T13:35:50.555Z,3.70
2018-06-14T13:36:50.504Z,4.30
2018-06-14T13:37:50.507Z,4.00
2018-06-14T13:38:50.482Z,3.10
2018-06-14T13:39:50.492Z,4.20
2018-06-14T13:40:50.465Z,2.10
2018-06-14T13:41:50.458Z,2.20
2018-06-14T13:42:50.446Z,2.80
2018-06-14T13:43:50.438Z,3.40
2018-06-14T13:44:50.443Z,4.40
2018-06-14T13:45:50.443Z,4.70
2018-06-14T13:46:50.405Z,3.10
2018-06-14T13:47:50.395Z,3.50
2018-06-14T13:48:50.469Z,3.90
2018-06-14T13:49:50.406Z,2.80
2018-06-14T13:50:50.372Z,3.90
2018-06-14T13:51:50.362Z,3.10
2018-06-14T13:52:50.351Z,3.50
2018-06-14T13:53:50.355Z,3.40
2018-06-14T13:54:50.328Z,3.00
2018-06-14T13:55:50.339Z,3.50
2018-06-14T13:56:50.356Z,3.30
2018-06-14T13:57:50.324Z,3.20
2018-06-14T13:58:50.294Z,2.50
2018-06-14T13:59:51.002Z,2.40
2018-06-14T14:00:50.534Z,5.30
2018-06-14T14:01:50.301Z,2.70
2018-06-14T14:02:50.300Z,3.10
2018-06-14T14:03:50.287Z,4.30
2018-06-14T14:04:50.331Z,4.50
2018-06-14T14:05:50.257Z,3.50
2018-06-14T14:06:50.223Z,3.50
2018-06-14T14:07:50.220Z,3.60
2018-06-14T14:08:50.235Z,3.60
2018-06-14T14:09:50.321Z,3.00
2018-06-14T14:10:51.001Z,4.20
2018-06-14T14:11:50.326Z,5.10
2018-06-14T14:12:51.581Z,1.70
2018-06-14T14:13:50.341Z,2.60
2018-06-14T14:14:50.264Z,5.50
2018-06-14T14:15:50.406Z,2.60
2018-06-14T14:16:50.473Z,2.60
2018-06-14T14:17:50.943Z,2.40
2018-06-14T14:18:50.199Z,2.30
2018-06-14T14:19:50.122Z,2.40
2018-06-14T14:20:50.113Z,3.40
2018-06-14T14:21:50.121Z,5.90
2018-06-14T14:22:50.100Z,5.70
2018-06-14T14:23:50.169Z,5.50
2018-06-14T14:24:50.085Z,4.80
2018-06-14T14:25:50.775Z,3.30
2018-06-14T14:26:50.064Z,2.20
2018-06-14T14:27:50.065Z,2.90
2018-06-14T14:28:50.050Z,3.50
2018-06-14T14:29:50.041Z,4.30
2018-06-14T14:30:50.034Z,5.00
2018-06-14T14:31:50.024Z,3.40
2018-06-14T14:32:50.027Z,3.30
2018-06-14T14:33:50.016Z,3.70
2018-06-14T14:34:50.004Z,2.00
2018-06-14T14:35:49.990Z,1.90
2018-06-14T14:36:49.991Z,2.90
2018-06-14T14:37:49.990Z,3.20
2018-06-14T14:38:49.966Z,2.60
2018-06-14T14:39:49.957Z,2.90
2018-06-14T14:40:49.945Z,2.60
2018-06-14T14:41:49.946Z,2.60
2018-06-14T14:42:49.948Z,3.20
2018-06-14T14:43:49.927Z,2.70
2018-06-14T14:44:49.916Z,2.40
2018-06-14T14:45:49.907Z,2.90
2018-06-14T14:46:49.904Z,2.30
2018-06-14T14:47:49.891Z,2.30
2018-06-14T14:48:49.897Z,2.40
2018-06-14T14:49:49.879Z,2.80
2018-06-14T14:50:49.863Z,2.50
2018-06-14T14:51:49.856Z,2.90
2018-06-14T14:52:49.846Z,2.40
2018-06-14T14:53:49.857Z,3.10
2018-06-14T14:54:49.828Z,2.90
2018-06-14T14:55:49.822Z,2.20
2018-06-14T14:56:49.810Z,3.30
2018-06-14T14:57:50.003Z,3.30
2018-06-14T14:58:49.790Z,2.10
2018-06-14T14:59:49.790Z,3.10
2018-06-14T15:00:49.777Z,3.40
2018-06-14T15:01:49.769Z,3.10
2018-06-14T15:02:49.754Z,3.80
2018-06-14T15:03:49.747Z,2.60
2018-06-14T15:04:49.755Z,2.90
2018-06-14T15:05:49.724Z,3.60
2018-06-14T15:06:49.713Z,3.80
2018-06-14T15:07:49.702Z,3.40
2018-06-14T15:08:49.694Z,4.00
2018-06-14T15:09:49.699Z,3.80
2018-06-14T15:10:49.676Z,3.10
2018-06-14T15:11:49.664Z,3.40
2018-06-14T15:12:49.651Z,2.10
2018-06-14T15:13:49.642Z,2.00
2018-06-14T15:14:49.650Z,1.90
2018-06-14T15:15:49.624Z,3.20
2018-06-14T15:16:49.613Z,3.60
2018-06-14T15:17:49.647Z,3.70
2018-06-14T15:18:49.591Z,4.70
2018-06-14T15:19:49.625Z,3.20
2018-06-14T15:20:49.579Z,5.40
2018-06-14T15:21:49.559Z,3.00
2018-06-14T15:22:49.554Z,4.70
2018-06-14T15:23:49.536Z,2.40
2018-06-14T15:24:49.525Z,2.40
2018-06-14T15:25:49.529Z,2.90
2018-06-14T15:26:49.507Z,3.50
2018-06-14T15:27:49.496Z,4.00
2018-06-14T15:28:49.485Z,5.10
2018-06-14T15:29:49.475Z,3.60
2018-06-14T15:30:49.488Z,2.60
2018-06-14T15:31:49.451Z,2.80
2018-06-14T15:32:49.437Z,4.00
2018-06-14T15:33:49.432Z,4.00
2018-06-14T15:34:49.423Z,3.70
2018-06-14T15:35:49.437Z,4.10
2018-06-14T15:36:49.409Z,3.10
2018-06-14T15:37:49.383Z,3.00
2018-06-14T15:38:49.374Z,4.00
2018-06-14T15:39:49.360Z,2.60
2018-06-14T15:40:49.353Z,3.30
2018-06-14T15:41:49.353Z,4.30
2018-06-14T15:42:49.326Z,4.50
2018-06-14T15:43:49.311Z,3.00
2018-06-14T15:44:49.315Z,3.30
2018-06-14T15:45:49.291Z,1.90
2018-06-14T15:46:49.297Z,3.20
2018-06-14T15:47:49.270Z,4.70
2018-06-14T15:48:49.288Z,4.50
2018-06-14T15:49:49.248Z,2.60
2018-06-14T15:50:49.243Z,3.90
2018-06-14T15:51:49.228Z,3.30
2018-06-14T15:52:49.224Z,3.00
2018-06-14T15:53:49.215Z,2.30
2018-06-14T15:54:49.188Z,5.00
2018-06-14T15:55:49.179Z,3.60
2018-06-14T15:56:49.167Z,3.80
2018-06-14T15:57:49.165Z,2.70
2018-06-14T15:58:49.168Z,2.70
2018-06-14T15:59:49.130Z,3.80
2018-06-14T16:00:49.158Z,4.60
2018-06-14T16:01:49.110Z,6.20
2018-06-14T16:02:49.113Z,5.00
2018-06-14T16:03:49.093Z,3.70
2018-06-14T16:04:49.116Z,3.50
2018-06-14T16:05:49.074Z,2.90
2018-06-14T16:06:49.047Z,4.50
2018-06-14T16:07:49.041Z,3.70
2018-06-14T16:08:49.037Z,2.90
2018-06-14T16:09:49.012Z,2.00
2018-06-14T16:10:49.048Z,6.80
2018-06-14T16:11:48.990Z,5.10
2018-06-14T16:12:48.977Z,3.00
2018-06-14T16:13:48.977Z,2.40
2018-06-14T16:14:48.949Z,3.40
2018-06-14T16:15:48.937Z,2.70
2018-06-14T16:16:48.931Z,3.20
2018-06-14T16:17:48.917Z,3.40
2018-06-14T16:18:48.917Z,2.50
2018-06-14T16:19:48.890Z,2.40
2018-06-14T16:20:48.924Z,3.10
2018-06-14T16:21:48.867Z,2.80
2018-06-14T16:22:48.852Z,2.20
2018-06-14T16:23:48.840Z,2.10
2018-06-14T16:24:48.907Z,3.40
2018-06-14T16:25:48.998Z,3.80
2018-06-14T16:26:49.079Z,4.70
2018-06-14T16:27:48.795Z,4.10
2018-06-14T16:28:48.779Z,2.80
2018-06-14T16:29:48.775Z,4.20
2018-06-14T16:30:48.748Z,5.00
2018-06-14T16:31:48.747Z,5.00
2018-06-14T16:32:48.731Z,3.80
2018-06-14T16:33:48.730Z,4.30
2018-06-14T16:34:48.921Z,3.10
2018-06-14T16:35:48.690Z,4.80
2018-06-14T16:36:48.682Z,5.20
2018-06-14T16:37:48.995Z,3.80
2018-06-14T16:38:48.645Z,4.20
2018-06-14T16:39:48.633Z,4.80
2018-06-14T16:40:48.630Z,5.60
2018-06-14T16:41:48.605Z,4.40
2018-06-14T16:42:48.591Z,5.30
2018-06-14T16:43:48.580Z,5.30
2018-06-14T16:44:48.566Z,6.10
2018-06-14T16:45:48.612Z,6.20
2018-06-14T16:46:48.537Z,7.90
2018-06-14T16:47:48.523Z,6.20
2018-06-14T16:48:48.508Z,6.80
2018-06-14T16:49:48.491Z,7.60
2018-06-14T16:50:48.498Z,8.30
2018-06-14T16:51:48.522Z,11.10
2018-06-14T16:52:48.459Z,7.30
2018-06-14T16:53:48.437Z,7.40
2018-06-14T16:54:48.418Z,6.70
2018-06-14T16:55:48.415Z,7.20
2018-06-14T16:56:48.404Z,7.00
2018-06-14T16:57:48.383Z,7.40
2018-06-14T16:58:48.368Z,8.30
2018-06-14T16:59:48.352Z,7.60
2018-06-14T17:00:48.335Z,9.70
2018-06-14T17:01:48.328Z,7.60
2018-06-14T17:02:48.305Z,7.90
2018-06-14T17:03:48.290Z,8.80
2018-06-14T17:04:48.276Z,7.40
2018-06-14T17:05:48.258Z,7.80
2018-06-14T17:06:50.075Z,7.90
2018-06-14T17:07:48.231Z,7.90
2018-06-14T17:08:48.219Z,8.40
2018-06-14T17:09:48.200Z,11.30
2018-06-14T17:10:48.181Z,8.90
2018-06-14T17:11:48.168Z,8.70
2018-06-14T17:12:48.167Z,8.60
2018-06-14T17:13:48.136Z,10.50
2018-06-14T17:14:48.127Z,10.70
2018-06-14T17:15:48.105Z,8.30
2018-06-14T17:16:48.095Z,8.50
2018-06-14T17:17:48.088Z,9.10
2018-06-14T17:18:48.063Z,11.40
2018-06-14T17:19:48.045Z,9.10
2018-06-14T17:20:48.028Z,11.30
2018-06-14T17:21:48.016Z,11.80
2018-06-14T17:22:48.020Z,10.00
2018-06-14T17:23:47.983Z,14.90
2018-06-14T17:24:47.970Z,10.80
2018-06-14T17:25:47.954Z,11.40
2018-06-14T17:26:47.936Z,11.60
2018-06-14T17:27:47.921Z,10.90
2018-06-14T17:28:47.916Z,13.00
2018-06-14T17:29:47.888Z,11.20
2018-06-14T17:30:47.874Z,10.50
2018-06-14T17:31:47.868Z,13.30
2018-06-14T17:32:47.848Z,10.70
2018-06-14T17:33:47.845Z,11.00
2018-06-14T17:34:47.811Z,11.60
2018-06-14T17:35:47.797Z,11.30
2018-06-14T17:36:47.784Z,11.60
2018-06-14T17:37:47.771Z,13.20
2018-06-14T17:38:47.764Z,12.30
2018-06-14T17:39:47.740Z,11.30
2018-06-14T17:40:47.730Z,11.10
2018-06-14T17:41:47.706Z,13.40
2018-06-14T17:42:47.692Z,13.10
2018-06-14T17:43:47.675Z,11.20
2018-06-14T17:44:47.666Z,11.10
2018-06-14T17:45:47.641Z,11.40
2018-06-14T17:46:47.632Z,11.70
2018-06-14T17:47:47.652Z,13.10
2018-06-14T17:48:47.599Z,13.10
2018-06-14T17:49:47.601Z,12.10
2018-06-14T17:50:47.562Z,14.20
2018-06-14T17:51:47.550Z,13.40
2018-06-14T17:52:47.539Z,13.60
2018-06-14T17:53:47.598Z,14.40
2018-06-14T17:54:47.532Z,17.20
2018-06-14T17:55:47.485Z,17.90
2018-06-14T17:56:47.471Z,15.90
2018-06-14T17:57:47.455Z,18.70
2018-06-14T17:58:47.444Z,14.30
2018-06-14T17:59:47.451Z,18.50
2018-06-14T18:00:47.415Z,23.80
2018-06-14T18:01:47.406Z,20.70
2018-06-14T18:02:47.381Z,17.50
2018-06-14T18:03:47.371Z,16.10
2018-06-14T18:04:47.346Z,18.20
2018-06-14T18:05:47.342Z,13.10
2018-06-14T18:06:47.317Z,17.10
2018-06-14T18:07:47.309Z,14.50
2018-06-14T18:08:47.291Z,16.00
2018-06-14T18:09:47.273Z,14.60
2018-06-14T18:10:47.268Z,12.80
2018-06-14T18:11:47.241Z,14.20
2018-06-14T18:12:47.226Z,16.20
2018-06-14T18:13:47.208Z,17.50
2018-06-14T18:14:47.191Z,13.90
2018-06-14T18:15:47.207Z,13.90
2018-06-14T18:16:47.166Z,14.00
2018-06-14T18:17:47.165Z,14.60
2018-06-14T18:18:47.173Z,15.30
2018-06-14T18:19:47.115Z,13.90
2018-06-14T18:20:47.105Z,13.00
2018-06-14T18:21:47.103Z,14.70
2018-06-14T18:22:47.067Z,14.80
2018-06-14T18:23:47.055Z,15.40
2018-06-14T18:24:47.040Z,17.60
2018-06-14T18:25:47.023Z,19.20
2018-06-14T18:26:47.017Z,15.60
2018-06-14T18:27:46.998Z,16.50
2018-06-14T18:28:46.973Z,13.50
2018-06-14T18:29:47.063Z,14.70
2018-06-14T18:30:46.945Z,14.60
2018-06-14T18:31:46.957Z,18.00
2018-06-14T18:32:46.936Z,18.80
2018-06-14T18:33:46.901Z,18.60
2018-06-14T18:34:46.885Z,17.50
2018-06-14T18:35:46.869Z,23.00
2018-06-14T18:36:46.851Z,24.50
2018-06-14T18:37:46.850Z,18.30
2018-06-14T18:38:46.825Z,15.20
2018-06-14T18:39:46.807Z,16.60
2018-06-14T18:40:46.788Z,15.30
2018-06-14T18:41:46.774Z,19.60
2018-06-14T18:42:46.772Z,17.60
2018-06-14T18:43:46.747Z,20.20
2018-06-14T18:44:46.727Z,19.90
2018-06-14T18:45:46.711Z,22.70
2018-06-14T18:46:46.693Z,19.20
2018-06-14T18:47:46.716Z,17.90
2018-06-14T18:48:46.670Z,16.60
2018-06-14T18:49:46.705Z,16.30
2018-06-14T18:50:46.634Z,16.80
2018-06-14T18:51:46.624Z,17.70
2018-06-14T18:52:46.604Z,18.50
2018-06-14T18:53:46.605Z,18.90
2018-06-14T18:54:46.572Z,18.80
2018-06-14T18:55:46.557Z,17.60
2018-06-14T18:56:46.539Z,18.40
2018-06-14T18:57:46.523Z,21.80
2018-06-14T18:58:46.516Z,22.30
2018-06-14T18:59:46.497Z,18.40
2018-06-14T19:00:46.474Z,18.90
2018-06-14T19:01:46.460Z,16.70
2018-06-14T19:02:46.448Z,18.20
2018-06-14T19:03:46.445Z,20.60
2018-06-14T19:04:46.413Z,16.70
2018-06-14T19:05:46.397Z,19.60
2018-06-14T19:06:46.420Z,18.30
2018-06-14T19:07:46.365Z,18.80
2018-06-14T19:08:46.371Z,18.50
2018-06-14T19:09:46.335Z,18.40
2018-06-14T19:10:46.322Z,17.60
2018-06-14T19:11:46.303Z,18.60
2018-06-14T19:12:46.297Z,16.30
2018-06-14T19:13:46.274Z,17.20
2018-06-14T19:14:46.268Z,17.50
2018-06-14T19:15:46.248Z,17.60
2018-06-14T19:16:46.224Z,16.60
2018-06-14T19:17:46.215Z,16.10
2018-06-14T19:18:46.192Z,17.90
2018-06-14T19:19:46.197Z,19.20
2018-06-14T19:20:46.164Z,20.20
2018-06-14T19:21:46.144Z,17.40
2018-06-14T19:22:46.130Z,19.50
2018-06-14T19:23:46.114Z,17.20
2018-06-14T19:24:46.126Z,16.70
2018-06-14T19:25:46.090Z,18.90
2018-06-14T19:26:46.067Z,18.70
2018-06-14T19:27:46.050Z,21.00
2018-06-14T19:28:46.036Z,18.30
2018-06-14T19:29:46.018Z,22.10
2018-06-14T19:30:46.016Z,21.00
2018-06-14T19:31:45.987Z,27.50
2018-06-14T19:32:45.971Z,19.60
2018-06-14T19:33:45.958Z,19.40
2018-06-14T19:34:45.940Z,17.60
2018-06-14T19:35:45.934Z,21.50
2018-06-14T19:36:45.907Z,21.00
2018-06-14T19:37:45.895Z,24.00
2018-06-14T19:38:45.878Z,24.00
2018-06-14T19:39:45.861Z,21.80
2018-06-14T19:40:45.862Z,22.30
2018-06-14T19:41:45.831Z,20.30
2018-06-14T19:42:45.814Z,18.50
2018-06-14T19:43:45.799Z,19.20
2018-06-14T19:44:45.783Z,20.10
2018-06-14T19:45:45.767Z,19.60
2018-06-14T19:46:45.776Z,19.30
2018-06-14T19:47:45.733Z,20.20
2018-06-14T19:48:45.722Z,19.80
2018-06-14T19:49:45.709Z,19.70
2018-06-14T19:50:45.687Z,18.10
2018-06-14T19:51:45.681Z,21.40
2018-06-14T19:52:45.656Z,22.00
2018-06-14T19:53:45.638Z,22.60
2018-06-14T19:54:45.683Z,22.90
2018-06-14T19:55:45.607Z,23.00
2018-06-14T19:56:45.610Z,20.20
2018-06-14T19:57:45.577Z,20.90
2018-06-14T19:58:45.560Z,21.40
2018-06-14T19:59:45.546Z,21.60
2018-06-14T20:00:45.529Z,22.40
2018-06-14T20:01:45.512Z,22.20
2018-06-14T20:02:45.507Z,25.50
2018-06-14T20:03:45.480Z,24.20
2018-06-14T20:04:45.465Z,22.50
2018-06-14T20:05:45.447Z,29.20
2018-06-14T20:06:45.432Z,22.60
2018-06-14T20:07:45.432Z,23.00
2018-06-14T20:08:45.401Z,22.00
2018-06-14T20:09:45.384Z,24.30
2018-06-14T20:10:45.368Z,23.20
2018-06-14T20:11:45.355Z,25.10
2018-06-14T20:12:45.351Z,25.00
2018-06-14T20:13:46.530Z,24.50
2018-06-14T20:14:45.304Z,28.00
2018-06-14T20:15:45.292Z,26.30
2018-06-14T20:16:45.276Z,23.90
2018-06-14T20:17:45.256Z,24.70
2018-06-14T20:18:45.269Z,26.90
2018-06-14T20:19:45.226Z,26.60
2018-06-14T20:20:45.247Z,30.10
2018-06-14T20:21:45.194Z,24.60
2018-06-14T20:22:45.177Z,24.80
2018-06-14T20:23:45.175Z,25.00
2018-06-14T20:24:45.145Z,25.50
2018-06-14T20:25:45.133Z,25.40
2018-06-14T20:26:45.121Z,24.10
2018-06-14T20:27:45.097Z,24.50
2018-06-14T20:28:45.103Z,25.40
2018-06-14T20:29:45.065Z,27.20
2018-06-14T20:30:45.050Z,27.50
2018-06-14T20:31:45.036Z,25.80
2018-06-14T20:32:45.019Z,26.20
2018-06-14T20:33:45.020Z,30.30
2018-06-14T20:34:44.986Z,30.50
2018-06-14T20:35:44.976Z,26.40
2018-06-14T20:36:44.957Z,26.50
2018-06-14T20:37:44.941Z,25.60
2018-06-14T20:38:44.925Z,28.00
2018-06-14T20:39:44.917Z,26.20
2018-06-14T20:40:44.890Z,24.30
2018-06-14T20:41:44.884Z,25.00
2018-06-14T20:42:44.863Z,23.90
2018-06-14T20:43:44.906Z,27.90
2018-06-14T20:44:44.837Z,28.80
2018-06-14T20:45:44.811Z,26.10
2018-06-14T20:46:44.795Z,26.40
2018-06-14T20:47:44.778Z,26.30
2018-06-14T20:48:44.775Z,26.50
2018-06-14T20:49:44.887Z,24.90
2018-06-14T20:50:44.733Z,28.30
2018-06-14T20:51:44.777Z,27.00
2018-06-14T20:52:45.023Z,26.60
2018-06-14T20:53:44.682Z,27.90
2018-06-14T20:54:44.670Z,28.90
2018-06-14T20:55:44.665Z,29.20
2018-06-14T20:56:44.634Z,27.20
2018-06-14T20:57:44.616Z,28.80
2018-06-14T20:58:44.601Z,24.90
2018-06-14T20:59:44.590Z,25.30
2018-06-14T21:00:44.589Z,25.90
2018-06-14T21:01:44.558Z,24.90
2018-06-14T21:02:44.538Z,25.80
2018-06-14T21:03:44.521Z,28.10
2018-06-14T21:04:44.504Z,24.50
2018-06-14T21:05:44.504Z,26.30
2018-06-14T21:06:44.473Z,24.50
2018-06-14T21:07:44.458Z,41.70
2018-06-14T21:08:44.443Z,38.50
2018-06-14T21:09:44.424Z,27.20
2018-06-14T21:10:44.413Z,26.20
2018-06-14T21:11:44.403Z,27.00
2018-06-14T21:12:44.382Z,23.40
2018-06-14T21:13:44.363Z,24.20
2018-06-14T21:14:44.344Z,22.40
2018-06-14T21:15:44.347Z,23.00
2018-06-14T21:16:44.328Z,27.30
2018-06-14T21:17:44.298Z,25.60
2018-06-14T21:18:44.282Z,25.70
2018-06-14T21:19:44.264Z,36.30
2018-06-14T21:20:44.247Z,41.50
2018-06-14T21:21:44.250Z,27.20
2018-06-14T21:22:44.215Z,25.50
2018-06-14T21:23:44.202Z,25.40
2018-06-14T21:24:44.183Z,24.80
2018-06-14T21:25:44.168Z,26.20
2018-06-14T21:26:44.149Z,27.00
2018-06-14T21:27:44.154Z,26.20
2018-06-14T21:28:44.120Z,23.30
2018-06-14T21:29:44.103Z,23.10
2018-06-14T21:30:44.090Z,24.00
2018-06-14T21:31:44.071Z,24.50
2018-06-14T21:32:44.071Z,27.40
2018-06-14T21:33:44.039Z,27.00
2018-06-14T21:34:44.029Z,28.10
2018-06-14T21:35:44.007Z,28.90
2018-06-14T21:36:43.990Z,28.20
2018-06-14T21:37:43.988Z,32.20
2018-06-14T21:38:43.959Z,25.30
2018-06-14T21:39:43.948Z,23.60
2018-06-14T21:40:43.930Z,24.80
2018-06-14T21:41:43.914Z,32.00
2018-06-14T21:42:43.931Z,35.40
2018-06-14T21:43:43.883Z,37.40
2018-06-14T21:44:43.865Z,30.60
2018-06-14T21:45:43.853Z,29.80
2018-06-14T21:46:43.831Z,29.60
2018-06-14T21:47:43.817Z,29.50
2018-06-14T21:48:43.813Z,29.40
2018-06-14T21:49:43.786Z,27.90
2018-06-14T21:50:43.779Z,29.00
2018-06-14T21:51:43.749Z,25.40
2018-06-14T21:52:43.735Z,25.90
2018-06-14T21:53:43.735Z,25.80
2018-06-14T21:54:43.705Z,25.60
2018-06-14T21:55:43.687Z,26.10
2018-06-14T21:56:43.674Z,25.80
2018-06-14T21:57:43.656Z,27.10
2018-06-14T21:58:43.699Z,27.30
2018-06-14T21:59:43.625Z,59.20
2018-06-14T22:00:43.607Z,34.40
2018-06-14T22:01:43.593Z,32.30
2018-06-14T22:02:43.576Z,27.40
2018-06-14T22:03:43.571Z,30.90
2018-06-14T22:04:43.557Z,28.00
2018-06-14T22:05:43.533Z,26.40
2018-06-14T22:06:43.509Z,25.60
2018-06-14T22:07:43.501Z,24.80
2018-06-14T22:08:43.480Z,23.80
2018-06-14T22:09:43.473Z,27.80
2018-06-14T22:10:43.443Z,31.10
2018-06-14T22:11:43.427Z,28.30
2018-06-14T22:12:43.411Z,33.50
2018-06-14T22:13:43.398Z,30.50
2018-06-14T22:14:43.405Z,29.50
2018-06-14T22:15:43.362Z,26.40
2018-06-14T22:16:43.355Z,25.70
2018-06-14T22:17:43.332Z,24.50
2018-06-14T22:18:43.319Z,23.10
2018-06-14T22:19:43.297Z,31.70
2018-06-14T22:20:43.296Z,28.30
2018-06-14T22:21:43.265Z,24.00
2018-06-14T22:22:43.249Z,23.70
2018-06-14T22:23:43.233Z,21.70
2018-06-14T22:24:43.217Z,22.60
2018-06-14T22:25:43.221Z,22.30
2018-06-14T22:26:43.189Z,21.00
2018-06-14T22:27:43.170Z,24.10
2018-06-14T22:28:43.149Z,27.00
2018-06-14T22:29:43.151Z,18.30
2018-06-14T22:30:43.142Z,18.20
2018-06-14T22:31:43.105Z,19.00
2018-06-14T22:32:43.087Z,19.70
2018-06-14T22:33:43.074Z,18.90
2018-06-14T22:34:43.057Z,18.10
2018-06-14T22:35:43.045Z,19.00
2018-06-14T22:36:43.034Z,20.90
2018-06-14T22:37:43.008Z,21.50